Time;durP1;ratioP1;P1;durP2;ratioP2;P2;SDS_P1;SDS_P2;PMS_P1;PMS_P2;Temp;Humidity;BMP_temperature;BMP_pressure;BME280_temperature;BME280_humidity;BME280_pressure;Samples;Min_cycle;Max_cycle;Signal;HPM_P1;HPM_P2
2022/05/14 00:01:15;;;;;;;3.63;0.75;;;12.30;99.90;;;;;;20445496;28;20074;-39
2022/05/14 00:21:38;;;;;;;2.28;0.75;;;12.20;99.90;;;;;;20463145;28;20083;-39
2022/05/14 00:31:39;;;;;;;2.15;0.68;;;12.30;99.90;;;;;;20440347;28;20051;-40
2022/05/14 00:41:46;;;;;;;2.92;1.25;;;12.10;99.90;;;;;;20438294;28;21303;-40
2022/05/14 00:51:48;;;;;;;1.27;0.47;;;11.90;99.90;;;;;;20451356;28;20052;-40
2022/05/14 01:01:50;;;;;;;4.00;0.80;;;12.10;99.90;;;;;;20436369;28;20044;-40
2022/05/14 01:11:53;;;;;;;3.53;1.20;;;12.00;99.90;;;;;;20430606;28;20043;-39
2022/05/14 01:22:14;;;;;;;4.18;0.95;;;11.90;99.90;;;;;;20429904;28;20047;-39
2022/05/14 01:32:16;;;;;;;2.50;1.05;;;11.90;99.90;;;;;;20413986;28;20052;-39
2022/05/14 01:42:17;;;;;;;4.55;1.45;;;11.80;99.90;;;;;;20419442;28;20043;-39
2022/05/14 01:52:18;;;;;;;4.35;1.45;;;11.70;99.90;;;;;;20428591;28;20043;-39
2022/05/14 02:02:19;;;;;;;11.05;1.80;;;11.70;99.90;;;;;;20447846;28;20043;-39
2022/05/14 02:12:21;;;;;;;7.68;1.90;;;11.70;99.90;;;;;;20423660;28;20052;-39
2022/05/14 02:22:22;;;;;;;4.90;1.40;;;11.60;99.90;;;;;;20440069;28;20043;-39
2022/05/14 02:32:26;;;;;;;2.90;1.23;;;11.50;99.90;;;;;;20429128;28;20055;-39
2022/05/14 02:42:27;;;;;;;5.53;1.85;;;11.40;99.90;;;;;;20427686;28;20044;-39
2022/05/14 02:52:28;;;;;;;6.22;2.17;;;11.40;99.90;;;;;;20424278;28;20043;-39
2022/05/14 03:02:29;;;;;;;6.10;2.08;;;11.40;99.90;;;;;;20411729;28;20043;-39
2022/05/14 03:12:30;;;;;;;7.45;2.55;;;11.30;99.90;;;;;;20409243;28;20653;-39
2022/05/14 03:22:32;;;;;;;6.80;2.50;;;11.30;99.90;;;;;;20421255;28;20047;-39
2022/05/14 03:32:33;;;;;;;3.70;1.92;;;11.20;99.90;;;;;;20439404;28;20056;-39
2022/05/14 03:42:34;;;;;;;7.60;2.45;;;11.20;99.90;;;;;;20452692;28;20406;-39
2022/05/14 03:52:35;;;;;;;9.90;3.05;;;11.10;99.90;;;;;;20439740;28;20048;-39
2022/05/14 04:02:37;;;;;;;10.20;3.80;;;11.10;99.90;;;;;;20450263;28;20040;-39
2022/05/14 04:12:39;;;;;;;5.95;2.50;;;11.10;99.90;;;;;;20420024;28;20051;-40
2022/05/14 04:22:40;;;;;;;6.70;3.78;;;11.10;99.90;;;;;;20428077;28;21220;-39
2022/05/14 04:32:42;;;;;;;7.93;2.10;;;11.30;99.90;;;;;;20442419;28;20061;-39
2022/05/14 04:42:43;;;;;;;4.72;1.60;;;11.30;99.90;;;;;;20431062;28;20050;-39
2022/05/14 04:52:44;;;;;;;8.65;3.08;;;11.30;99.90;;;;;;20428107;28;20051;-39
2022/05/14 05:13:12;;;;;;;6.10;2.78;;;11.50;99.90;;;;;;20435937;28;20058;-39
2022/05/14 05:23:22;;;;;;;13.75;3.63;;;11.60;99.90;;;;;;20445872;28;20039;-39
2022/05/14 05:33:25;;;;;;;7.25;3.05;;;11.90;99.90;;;;;;20438194;28;20051;-39
2022/05/14 05:43:26;;;;;;;5.35;1.92;;;12.10;99.90;;;;;;20427494;28;20040;-39
2022/05/14 06:03:48;;;;;;;7.68;2.83;;;12.70;99.90;;;;;;20430184;28;20054;-39
2022/05/14 06:13:50;;;;;;;6.88;2.97;;;12.90;99.90;;;;;;20434287;28;20578;-40
2022/05/14 06:23:51;;;;;;;7.18;1.88;;;13.40;99.90;;;;;;20434456;28;20047;-40
2022/05/14 06:33:53;;;;;;;6.43;1.95;;;13.60;99.90;;;;;;20424789;28;20043;-40
2022/05/14 06:43:54;;;;;;;6.75;2.53;;;13.70;99.90;;;;;;20415828;28;20120;-40
2022/05/14 06:54:02;;;;;;;5.20;2.28;;;13.90;99.90;;;;;;20410812;28;20142;-40
2022/05/14 07:14:27;;;;;;;4.40;1.88;;;14.40;99.90;;;;;;20423189;28;20053;-40
2022/05/14 07:24:30;;;;;;;5.18;2.25;;;14.80;99.90;;;;;;20418117;28;20059;-40
2022/05/14 07:34:31;;;;;;;3.00;1.42;;;15.10;99.90;;;;;;20419663;28;20527;-39
2022/05/14 07:44:36;;;;;;;8.55;1.98;;;15.30;99.90;;;;;;20409336;28;20043;-39
2022/05/14 07:54:37;;;;;;;3.28;1.60;;;15.50;99.90;;;;;;20426763;28;20043;-39
2022/05/14 08:04:39;;;;;;;3.63;1.38;;;15.70;99.90;;;;;;20423652;28;20055;-39
2022/05/14 08:14:41;;;;;;;4.72;1.20;;;16.00;99.90;;;;;;20407983;28;21544;-39
2022/05/14 08:24:43;;;;;;;2.83;1.33;;;16.30;99.90;;;;;;20420607;28;20151;-40
2022/05/14 08:34:45;;;;;;;3.60;1.00;;;16.50;99.90;;;;;;20422090;28;20443;-40
2022/05/14 08:44:47;;;;;;;3.00;1.10;;;16.70;99.90;;;;;;20430115;28;20042;-40
2022/05/14 08:54:56;;;;;;;5.00;1.98;;;16.90;99.90;;;;;;20444890;28;20046;-40
2022/05/14 09:05:01;;;;;;;2.55;1.10;;;17.30;99.90;;;;;;20436777;28;20039;-40
2022/05/14 09:15:07;;;;;;;3.15;1.00;;;17.90;99.90;;;;;;20435542;28;20059;-40
2022/05/14 09:25:31;;;;;;;4.72;1.58;;;18.10;99.90;;;;;;20442818;28;20073;-40
2022/05/14 09:35:34;;;;;;;3.50;1.55;;;18.30;99.90;;;;;;20427476;28;20050;-40
2022/05/14 09:45:38;;;;;;;4.15;1.23;;;18.50;99.90;;;;;;20445015;28;20043;-40
2022/05/14 09:55:49;;;;;;;3.10;1.15;;;18.40;99.90;;;;;;20438623;28;20040;-40
2022/05/14 10:06:10;;;;;;;3.50;1.07;;;19.10;99.90;;;;;;20431043;28;20048;-40
2022/05/14 10:16:15;;;;;;;3.97;0.98;;;19.40;99.90;;;;;;20435189;28;20050;-40
2022/05/14 10:26:45;;;;;;;2.38;1.05;;;19.60;99.90;;;;;;20418547;28;20043;-40
2022/05/14 10:36:54;;;;;;;5.07;1.83;;;19.80;99.90;;;;;;20423065;28;20066;-40
2022/05/14 10:47:02;;;;;;;13.20;1.45;;;20.40;99.90;;;;;;20419985;28;20059;-40
2022/05/14 10:57:36;;;;;;;4.90;1.38;;;19.90;99.90;;;;;;20424349;28;20043;-40
2022/05/14 11:07:42;;;;;;;4.68;1.58;;;20.20;99.90;;;;;;20430075;28;20042;-40
2022/05/14 11:17:43;;;;;;;3.75;1.52;;;19.90;99.90;;;;;;20425419;28;20537;-40
2022/05/14 11:27:53;;;;;;;3.58;1.20;;;20.00;99.90;;;;;;20433265;28;20044;-40
2022/05/14 11:37:54;;;;;;;4.57;1.40;;;21.20;99.90;;;;;;20427279;28;20043;-40
2022/05/14 11:48:05;;;;;;;2.25;1.20;;;21.70;99.60;;;;;;20429534;28;20043;-40
2022/05/14 11:58:24;;;;;;;5.13;2.05;;;21.90;99.90;;;;;;20445225;28;20042;-40
2022/05/14 12:08:50;;;;;;;3.35;1.60;;;22.60;99.20;;;;;;20436640;28;20323;-40
2022/05/14 12:18:52;;;;;;;3.42;1.25;;;22.20;98.00;;;;;;20433411;28;21519;-40
2022/05/14 12:28:58;;;;;;;4.55;2.80;;;22.50;97.60;;;;;;20453768;28;20055;-41
2022/05/14 12:39:03;;;;;;;;;;;22.90;97.20;;;;;;20457872;28;20519;-40
2022/05/14 12:49:05;;;;;;;4.43;1.17;;;22.50;99.30;;;;;;20464316;28;19924;-41
2022/05/14 12:59:07;;;;;;;3.90;1.08;;;23.40;97.10;;;;;;20453763;28;20031;-41
2022/05/14 13:09:10;;;;;;;7.68;1.30;;;22.60;96.20;;;;;;20454446;28;20547;-41
2022/05/14 13:19:41;;;;;;;5.30;1.27;;;22.50;96.10;;;;;;20461707;28;20047;-40
2022/05/14 13:29:42;;;;;;;2.95;1.10;;;22.10;96.40;;;;;;20458532;28;20333;-40
2022/05/14 13:39:49;;;;;;;3.30;1.52;;;22.20;97.90;;;;;;20446568;28;20234;-41
2022/05/14 13:49:58;;;;;;;11.77;1.80;;;22.60;96.10;;;;;;20458920;28;20054;-41
2022/05/14 14:00:18;;;;;;;4.97;1.55;;;23.40;96.20;;;;;;20449205;28;20036;-40
2022/05/14 14:10:32;;;;;;;16.73;1.83;;;23.30;95.70;;;;;;20457127;28;20051;-40
2022/05/14 14:20:37;;;;;;;2.85;1.13;;;23.40;97.00;;;;;;20438669;28;20372;-41
2022/05/14 14:30:38;;;;;;;7.25;1.50;;;23.40;96.40;;;;;;20440964;28;20047;-40
2022/05/14 14:40:41;;;;;;;2.72;1.35;;;22.90;97.50;;;;;;20434930;28;20050;-40
2022/05/14 14:50:44;;;;;;;4.05;1.88;;;22.70;96.50;;;;;;20447069;28;20456;-40
2022/05/14 15:00:50;;;;;;;4.68;1.30;;;22.70;97.40;;;;;;20456671;28;20404;-40
2022/05/14 15:10:51;;;;;;;4.30;1.13;;;22.80;96.90;;;;;;20448476;28;21593;-40
2022/05/14 15:20:52;;;;;;;6.72;1.20;;;22.40;98.00;;;;;;20439626;28;20447;-40
2022/05/14 15:30:53;;;;;;;5.57;1.17;;;22.50;97.30;;;;;;20454864;28;20051;-40
2022/05/14 15:40:54;;;;;;;2.92;0.88;;;22.40;97.70;;;;;;20459763;28;20066;-40
2022/05/14 15:50:55;;;;;;;3.80;1.75;;;22.20;97.40;;;;;;20480407;28;20047;-40
2022/05/14 16:00:57;;;;;;;4.78;1.00;;;21.60;98.40;;;;;;20470440;28;20054;-41
2022/05/14 16:21:21;;;;;;;4.18;1.30;;;21.30;99.00;;;;;;20455399;28;20061;-41
2022/05/14 16:31:25;;;;;;;3.00;1.58;;;21.30;98.50;;;;;;20471020;28;20051;-40
2022/05/14 16:41:30;;;;;;;3.87;1.63;;;20.90;98.90;;;;;;20465231;28;20043;-40
2022/05/14 16:51:31;;;;;;;1.90;0.98;;;20.90;99.20;;;;;;20454157;28;20058;-41
2022/05/14 17:01:32;;;;;;;4.28;1.25;;;20.80;99.00;;;;;;20463263;28;20054;-40
2022/05/14 17:11:33;;;;;;;2.97;0.85;;;20.60;99.60;;;;;;20438806;28;20400;-40
2022/05/14 17:21:35;;;;;;;4.13;1.10;;;20.50;99.60;;;;;;20457453;28;20054;-40
2022/05/14 17:31:36;;;;;;;2.42;1.02;;;19.90;99.90;;;;;;20461439;28;20051;-40
2022/05/14 17:41:37;;;;;;;3.15;0.98;;;19.70;99.90;;;;;;20432307;28;20055;-40
2022/05/14 17:51:39;;;;;;;3.47;1.40;;;19.40;99.90;;;;;;20431101;28;20207;-40
2022/05/14 18:01:41;;;;;;;4.72;0.90;;;19.20;99.90;;;;;;20454956;28;20759;-40
2022/05/14 18:11:44;;;;;;;4.22;0.88;;;19.20;99.90;;;;;;20431109;28;20040;-40
2022/05/14 18:21:45;;;;;;;3.35;1.02;;;18.90;99.90;;;;;;20430295;28;20046;-40
2022/05/14 18:31:47;;;;;;;2.95;1.42;;;18.70;99.90;;;;;;20430115;28;20051;-40
2022/05/14 18:41:48;;;;;;;6.95;1.08;;;18.60;99.90;;;;;;20417988;28;20044;-40
2022/05/14 18:51:49;;;;;;;4.32;1.52;;;18.50;99.90;;;;;;20438024;28;20644;-40
2022/05/14 19:01:50;;;;;;;3.85;1.02;;;18.40;99.90;;;;;;20433646;28;20048;-40
2022/05/14 19:11:53;;;;;;;3.72;1.42;;;18.20;99.90;;;;;;20437187;28;20280;-40
2022/05/14 19:21:54;;;;;;;4.82;1.15;;;18.00;99.90;;;;;;20413305;28;20046;-40
2022/05/14 19:31:55;;;;;;;5.13;1.30;;;17.90;99.90;;;;;;20420145;28;20661;-40
2022/05/14 19:42:03;;;;;;;4.90;1.40;;;17.80;99.90;;;;;;20439638;28;20043;-40
2022/05/14 19:52:07;;;;;;;6.88;1.90;;;17.50;99.90;;;;;;20417883;28;20423;-40
2022/05/14 20:02:08;;;;;;;7.82;3.05;;;17.20;99.90;;;;;;20416239;28;20352;-40
2022/05/14 20:12:10;;;;;;;4.32;1.38;;;17.10;99.90;;;;;;20446358;28;20495;-40
2022/05/14 20:22:11;;;;;;;12.23;2.00;;;16.90;99.90;;;;;;20428874;28;20043;-40
2022/05/14 20:32:12;;;;;;;4.55;1.50;;;16.70;99.90;;;;;;20428411;28;20052;-41
2022/05/14 20:42:13;;;;;;;5.20;1.35;;;16.60;99.90;;;;;;20429016;28;20039;-40
2022/05/14 20:52:15;;;;;;;5.38;1.70;;;16.30;99.90;;;;;;20440000;28;20046;-40
2022/05/14 21:02:16;;;;;;;4.68;1.30;;;16.10;99.90;;;;;;20442843;28;20032;-40
2022/05/14 21:12:17;;;;;;;4.70;1.13;;;16.00;99.90;;;;;;20434803;28;20054;-40
2022/05/14 21:22:18;;;;;;;3.95;1.50;;;15.90;99.90;;;;;;20448313;28;20510;-40
2022/05/14 21:32:20;;;;;;;7.13;1.45;;;15.80;99.90;;;;;;20431969;28;20051;-40
2022/05/14 21:42:21;;;;;;;3.78;1.13;;;15.60;99.90;;;;;;20442069;28;20050;-40
2022/05/14 21:52:22;;;;;;;8.00;1.73;;;15.50;99.90;;;;;;20425644;28;20596;-40
2022/05/14 22:02:24;;;;;;;4.65;1.98;;;15.30;99.90;;;;;;20440024;28;20447;-40
2022/05/14 22:12:25;;;;;;;1.85;0.80;;;15.10;99.90;;;;;;20436306;28;20055;-40
2022/05/14 22:22:26;;;;;;;4.85;1.40;;;15.00;99.90;;;;;;20417371;28;20416;-40
2022/05/14 22:32:28;;;;;;;4.93;1.80;;;14.80;99.90;;;;;;20420000;28;20063;-40
2022/05/14 22:42:29;;;;;;;2.80;1.35;;;14.70;99.90;;;;;;20436568;28;20036;-40
2022/05/14 22:52:32;;;;;;;2.85;1.20;;;14.50;99.90;;;;;;20430212;28;20079;-40
2022/05/14 23:02:35;;;;;;;4.25;1.58;;;14.50;99.90;;;;;;20433606;28;20047;-40
2022/05/14 23:12:36;;;;;;;4.28;1.48;;;14.30;99.90;;;;;;20415061;28;20053;-39
2022/05/14 23:22:39;;;;;;;7.55;2.00;;;14.20;99.90;;;;;;20435042;28;20521;-39
2022/05/14 23:32:40;;;;;;;6.03;1.60;;;14.20;99.90;;;;;;20435856;28;20058;-40
2022/05/14 23:42:43;;;;;;;6.43;1.83;;;14.00;99.90;;;;;;20425248;28;21497;-40
2022/05/14 23:52:44;;;;;;;4.30;1.60;;;14.00;99.90;;;;;;20421363;28;20507;-40
